Туризм
Свали.ру
Погода в мире
ИА "Метеоновости"
Информеры
для сайтов
Туры
поиск и заказ
Авиабилеты
регулярные и чартерные рейсы
 
    На главную   Табло рисков задержки   Авиабилеты   Расписание авиарейсов

Tarbes-Lourdes-Pyrénées Airport    ICAO или ID: LFBT, IATA: LDE
Небольшой аэропорт, регулярные рейсы
добавить в избранное


широта:
долгота:
высота над уровнем моря:
43°11'
-0°0'

384 м
Страна: Франция (France)
погода
климат
описание
туры
отели
аэропорты
Риск задержки рейсов из-за погоды
Факт:  
Прогноз:  
 Карта
 



Текущее время 15:08 UTC 01-10-2023
Солнце: восход 05:57, заход 17:42, долгота дня 11:45

  18:00 (на 24ч) 06:00 (на 24ч) [12:00 (на 24ч)]

Прогноз погоды на 24 ч. с 12:00 01-10-2023 по 12:00 02-10-2023 UTC


Исходная телеграмма в коде TAF
LFBT 011100Z 0112/0212 03004KT CAVOK
FM011500 VRB03KT CAVOK

Раскодировка телеграмм производится в автоматическом режиме, в телеграммах могут содержаться ошибки, приводящие к их неправильной интерпретации.

Предупреждение: данные на этом сайте не могут быть использованы для планирования полётов и предоставляются только в информационных целях.
Найти аэропорт
По названию или городу
только регулярные рейсы

Избранные аэропорты
Список пуст



© 2008 Данио-Пресс. Все права защищены.
Использование материалов сайта возможно только с согласия администрации сервера.
По вопросам рекламы и размещения информации обращаться сюда.


 Рейтинг@Mail.ru  Rambler's Top100